Time;durP1;ratioP1;P1;durP2;ratioP2;P2;SDS_P1;SDS_P2;PMS_P1;PMS_P2;Temp;Humidity;BMP_temperature;BMP_pressure;BME280_temperature;BME280_humidity;BME280_pressure;Samples;Min_cycle;Max_cycle;Signal;HPM_P1;HPM_P2
2022/12/10 00:02:06;;;;;;;;;28.00;26.00;;;;;7.79;58.03;97314.75;6285848;27;96534;-69
2022/12/10 00:05:09;;;;;;;;;30.50;26.00;;;;;7.80;58.21;97315.56;6286065;27;96230;-69
2022/12/10 00:08:13;;;;;;;;;27.50;26.00;;;;;7.78;58.28;97315.78;6285933;27;96522;-69
2022/12/10 00:11:19;;;;;;;;;24.00;23.00;;;;;7.79;58.11;97314.75;6284957;27;97121;-69
2022/12/10 00:14:22;;;;;;;;;28.25;24.50;;;;;7.83;58.23;97320.41;6285032;27;96077;-68
2022/12/10 00:17:27;;;;;;;;;27.60;25.60;;;;;7.84;58.00;97330.09;6258508;27;98040;-68
2022/12/10 00:20:30;;;;;;;;;28.40;24.80;;;;;7.87;57.99;97336.88;6280155;27;97512;-68
2022/12/10 00:23:35;;;;;;;;;25.00;23.60;;;;;7.80;57.86;97318.25;6284269;27;96630;-69
2022/12/10 00:26:39;;;;;;;;;25.40;25.00;;;;;7.91;57.86;97332.66;6283044;27;96598;-69
2022/12/10 00:29:43;;;;;;;;;21.00;20.40;;;;;7.91;57.74;97330.78;6301671;27;96224;-68
2022/12/10 00:32:48;;;;;;;;;24.40;21.80;;;;;7.84;57.80;97333.59;6282114;27;97083;-69
2022/12/10 00:35:52;;;;;;;;;20.60;19.60;;;;;7.89;57.83;97337.44;6283086;27;96633;-69
2022/12/10 00:38:55;;;;;;;;;19.20;18.00;;;;;7.89;57.89;97335.56;6281757;27;96301;-69
2022/12/10 00:41:59;;;;;;;;;22.40;19.40;;;;;7.90;57.85;97341.75;6282955;27;96645;-69
2022/12/10 00:45:02;;;;;;;;;19.00;17.00;;;;;7.91;57.67;97341.50;6289892;27;97260;-69
2022/12/10 00:48:07;;;;;;;;;17.40;16.40;;;;;7.86;57.66;97324.50;6283731;27;96207;-68
2022/12/10 00:51:13;;;;;;;;;16.00;15.00;;;;;7.93;57.85;97336.69;6280823;27;96677;-69
2022/12/10 00:54:17;;;;;;;;;17.00;16.00;;;;;7.96;57.50;97341.59;6282339;27;96327;-69
2022/12/10 00:57:20;;;;;;;;;15.20;15.20;;;;;7.95;57.59;97333.78;6288778;27;96641;-69
2022/12/10 01:00:24;;;;;;;;;15.00;14.00;;;;;7.93;57.68;97352.78;6287393;27;96724;-68
2022/12/10 01:03:28;;;;;;;;;16.00;15.00;;;;;7.93;57.33;97343.94;6292736;27;96530;-69
2022/12/10 01:06:35;;;;;;;;;20.40;17.80;;;;;7.95;57.30;97352.56;6282829;27;96589;-69
2022/12/10 01:09:38;;;;;;;;;15.40;14.00;;;;;7.95;57.50;97348.00;6288836;27;96377;-69
2022/12/10 01:12:41;;;;;;;;;14.25;14.25;;;;;7.94;57.55;97345.56;6287640;27;96633;-69
2022/12/10 01:15:45;;;;;;;;;10.80;10.20;;;;;7.97;57.50;97347.75;6288041;27;98726;-69
2022/12/10 01:18:50;;;;;;;;;16.60;15.60;;;;;7.94;57.52;97346.38;6292207;27;96402;-70
2022/12/10 01:21:54;;;;;;;;;14.40;14.40;;;;;7.97;57.47;97347.75;6290539;27;96957;-69
2022/12/10 01:24:58;;;;;;;;;14.60;13.60;;;;;7.99;57.51;97351.84;6290110;27;98530;-69
2022/12/10 01:28:01;;;;;;;;;16.80;16.00;;;;;8.00;57.42;97352.66;6283105;27;96513;-70
2022/12/10 01:31:07;;;;;;;;;12.75;11.00;;;;;7.98;57.47;97352.06;6294791;27;96278;-70
2022/12/10 01:34:14;;;;;;;;;15.75;15.75;;;;;7.97;57.46;97361.16;6294422;27;96255;-70
2022/12/10 01:37:18;;;;;;;;;14.00;13.80;;;;;7.99;57.38;97365.25;6291030;27;96243;-69
2022/12/10 01:40:22;;;;;;;;;16.40;16.40;;;;;7.97;57.47;97361.97;6291086;27;96210;-70
2022/12/10 01:43:27;;;;;;;;;16.00;16.00;;;;;8.00;57.62;97372.25;6307248;27;97806;-70
2022/12/10 01:46:32;;;;;;;;;13.60;12.40;;;;;8.04;57.29;97369.88;6290747;27;96227;-69
2022/12/10 01:49:41;;;;;;;;;15.00;14.00;;;;;8.04;57.20;97369.88;6290718;27;96198;-69
2022/12/10 01:52:49;;;;;;;;;15.00;15.00;;;;;7.99;57.24;97373.31;6289227;27;96707;-70
2022/12/10 01:55:52;;;;;;;;;16.00;14.00;;;;;7.99;57.53;97375.16;6291017;27;96206;-70
2022/12/10 01:58:57;;;;;;;;;16.00;15.00;;;;;7.97;57.46;97372.72;6272375;27;99019;-70
2022/12/10 02:02:12;;;;;;;;;18.25;17.00;;;;;7.99;57.57;97365.25;6289392;27;96691;-69
2022/12/10 02:05:26;;;;;;;;;18.00;17.00;;;;;7.99;57.64;97375.16;6289399;27;96900;-69
2022/12/10 02:08:37;;;;;;;;;17.00;15.00;;;;;7.94;57.62;97369.72;6289317;27;96153;-69
2022/12/10 02:11:47;;;;;;;;;17.60;17.00;;;;;7.95;57.68;97366.78;6272354;27;96858;-70
2022/12/10 02:14:57;;;;;;;;;16.60;16.00;;;;;8.02;57.55;97378.19;6290798;27;96685;-70
2022/12/10 02:18:06;;;;;;;;;18.00;16.00;;;;;8.02;57.53;97377.34;6306725;27;96199;-70
2022/12/10 02:21:18;;;;;;;;;21.80;21.80;;;;;8.04;57.38;97376.06;6288702;27;96425;-69
2022/12/10 02:24:28;;;;;;;;;22.00;21.00;;;;;8.03;57.38;97382.50;6279270;27;96495;-70
2022/12/10 02:27:38;;;;;;;;;20.00;20.00;;;;;8.02;57.18;97382.72;6311192;27;96322;-70
2022/12/10 02:30:47;;;;;;;;;23.00;21.00;;;;;8.05;57.35;97376.91;6293462;27;98615;-70
2022/12/10 02:33:55;;;;;;;;;22.60;21.60;;;;;8.04;57.38;97373.41;6288046;27;96486;-70
2022/12/10 02:37:05;;;;;;;;;19.75;17.75;;;;;8.04;57.53;97381.44;6286418;27;96217;-69
2022/12/10 02:40:18;;;;;;;;;19.40;19.40;;;;;8.06;57.31;97400.00;6287615;27;96484;-68
2022/12/10 02:43:28;;;;;;;;;18.25;17.25;;;;;8.10;57.26;97407.31;6271358;27;96235;-69
2022/12/10 02:46:35;;;;;;;;;18.00;18.00;;;;;7.90;57.37;97360.53;6270278;27;96920;-70
2022/12/10 02:49:42;;;;;;;;;16.00;16.00;;;;;8.03;57.03;97395.91;6288594;27;96174;-70
2022/12/10 02:52:46;;;;;;;;;18.25;18.00;;;;;8.11;57.22;97413.50;6287767;27;96342;-69
2022/12/10 02:56:07;;;;;;;;;18.75;18.00;;;;;8.11;57.30;97408.13;6290632;27;96155;-69
2022/12/10 02:59:23;;;;;;;;;17.40;16.40;;;;;8.10;57.49;97407.31;6289160;27;96404;-69
2022/12/10 03:02:41;;;;;;;;;17.00;16.00;;;;;8.11;57.49;97405.47;6305651;27;97136;-69
2022/12/10 03:05:53;;;;;;;;;18.00;16.00;;;;;8.10;57.55;97401.94;6287247;27;96922;-69
2022/12/10 03:09:04;;;;;;;;;18.00;17.20;;;;;8.09;57.52;97403.00;6289252;27;96634;-69
2022/12/10 03:12:16;;;;;;;;;17.00;17.00;;;;;8.09;57.55;97396.81;6289104;27;96389;-69
2022/12/10 03:15:22;;;;;;;;;18.00;16.50;;;;;8.01;57.37;97392.66;6287530;27;96265;-69
2022/12/10 03:18:30;;;;;;;;;18.40;18.40;;;;;8.08;57.17;97408.59;6288667;27;96228;-69
2022/12/10 03:21:36;;;;;;;;;19.50;18.50;;;;;8.07;57.60;97415.84;6289827;27;96368;-70
2022/12/10 03:24:44;;;;;;;;;15.00;14.00;;;;;8.06;57.66;97408.84;6289094;27;96385;-70
2022/12/10 03:27:52;;;;;;;;;17.00;16.00;;;;;8.06;57.51;97414.19;6288358;27;96381;-70
2022/12/10 03:30:57;;;;;;;;;17.20;16.40;;;;;8.06;57.65;97416.09;6304741;27;96888;-70
2022/12/10 03:34:04;;;;;;;;;18.00;16.20;;;;;8.10;57.53;97418.06;6250785;27;96256;-70
2022/12/10 03:37:08;;;;;;;;;15.50;14.00;;;;;8.11;57.45;97421.56;6237736;28;96254;-70
2022/12/10 03:40:13;;;;;;;;;14.40;14.40;;;;;8.12;57.58;97417.78;6237457;27;96426;-70
2022/12/10 03:43:16;;;;;;;;;19.40;17.40;;;;;8.13;57.47;97417.56;6237267;28;96275;-70
2022/12/10 03:46:20;;;;;;;;;16.60;15.60;;;;;8.09;57.81;97405.69;6231106;27;96204;-70
2022/12/10 03:49:25;;;;;;;;;17.00;15.25;;;;;8.15;57.37;97420.00;6220724;28;96356;-70
2022/12/10 03:52:28;;;;;;;;;18.00;17.00;;;;;8.13;57.52;97414.88;6237012;28;96607;-69
2022/12/10 03:55:33;;;;;;;;;14.40;14.40;;;;;8.18;57.35;97425.72;6237410;28;96250;-70
2022/12/10 03:58:36;;;;;;;;;15.60;15.00;;;;;8.15;57.31;97425.38;6236570;27;97615;-69
2022/12/10 04:01:40;;;;;;;;;18.00;17.00;;;;;8.16;57.30;97438.53;6234914;27;96186;-70
2022/12/10 04:04:45;;;;;;;;;17.50;16.50;;;;;7.99;57.80;97437.72;6216770;28;96421;-69
2022/12/10 04:07:48;;;;;;;;;19.40;18.00;;;;;8.07;57.51;97442.69;6252365;27;96349;-70
2022/12/10 04:10:52;;;;;;;;;18.50;16.50;;;;;8.07;57.54;97445.34;6235787;28;96402;-70
2022/12/10 04:17:16;;;;;;;;;19.00;17.00;;;;;8.06;57.82;97469.78;6236535;28;96397;-70
2022/12/10 04:27:06;;;;;;;;;17.20;15.80;;;;;8.08;57.66;97483.75;6232204;28;96841;-70
2022/12/10 04:30:13;;;;;;;;;19.25;17.00;;;;;8.06;57.31;97489.34;6235888;27;96641;-69
2022/12/10 04:33:16;;;;;;;;;17.00;16.33;;;;;8.02;57.72;97477.47;6257399;27;96323;-69
2022/12/10 04:36:21;;;;;;;;;20.40;19.00;;;;;8.00;57.94;97468.84;6272450;27;96885;-69
2022/12/10 04:39:24;;;;;;;;;17.80;16.80;;;;;8.02;57.85;97469.41;6279969;27;96502;-70
2022/12/10 04:42:28;;;;;;;;;20.00;19.00;;;;;8.04;57.90;97463.81;6288048;27;96489;-69
2022/12/10 04:45:31;;;;;;;;;20.60;19.60;;;;;7.90;57.98;97435.66;6302545;27;96346;-70
2022/12/10 04:48:35;;;;;;;;;19.80;19.00;;;;;8.00;58.06;97460.00;6288721;27;96518;-70
2022/12/10 04:51:40;;;;;;;;;21.00;19.00;;;;;8.01;58.02;97477.72;6289106;27;96391;-69
2022/12/10 04:54:44;;;;;;;;;17.00;16.20;;;;;8.00;58.19;97484.97;6286938;27;96671;-69
2022/12/10 04:57:48;;;;;;;;;18.50;17.00;;;;;8.01;58.37;97491.16;6290629;27;96403;-70
2022/12/10 05:00:51;;;;;;;;;22.00;18.40;;;;;8.00;58.38;97493.00;6286101;27;96724;-70
2022/12/10 05:03:55;;;;;;;;;17.20;16.60;;;;;7.99;58.41;97480.66;6284436;27;96346;-69
2022/12/10 05:07:00;;;;;;;;;19.20;17.60;;;;;8.01;58.35;97486.59;6296713;27;96261;-70
2022/12/10 05:10:04;;;;;;;;;20.40;19.00;;;;;8.05;58.51;97489.63;6285395;27;96215;-69
2022/12/10 05:13:08;;;;;;;;;18.80;17.20;;;;;8.03;58.31;97481.78;6288455;27;96792;-69
2022/12/10 05:16:14;;;;;;;;;19.25;18.00;;;;;8.04;58.54;97488.78;6286244;27;96607;-69
2022/12/10 05:19:19;;;;;;;;;25.60;23.60;;;;;8.03;58.37;97489.03;6288534;27;96196;-70
2022/12/10 05:25:53;;;;;;;;;20.00;16.80;;;;;8.08;58.38;97519.47;6286368;27;97175;-69
2022/12/10 05:28:57;;;;;;;;;19.00;18.00;;;;;8.05;58.49;97536.06;6285652;27;96300;-70
2022/12/10 05:32:01;;;;;;;;;22.60;19.60;;;;;8.03;58.41;97534.66;6285744;27;96737;-69
2022/12/10 05:35:06;;;;;;;;;26.50;24.00;;;;;7.94;58.59;97560.22;6287408;27;97971;-69
2022/12/10 05:38:11;;;;;;;;;26.40;25.60;;;;;7.85;59.07;97551.75;6288299;27;96172;-69
2022/12/10 05:41:16;;;;;;;;;27.25;26.75;;;;;7.84;58.66;97550.09;6286050;27;97103;-70
2022/12/10 05:44:19;;;;;;;;;30.00;28.20;;;;;7.77;58.98;97552.91;6288131;27;96763;-70
2022/12/10 05:47:23;;;;;;;;;33.60;31.00;;;;;7.76;59.13;97550.47;6280627;27;96491;-70
2022/12/10 05:50:28;;;;;;;;;30.20;27.20;;;;;7.78;59.03;97549.16;6284293;27;96275;-70
2022/12/10 05:53:33;;;;;;;;;34.50;30.50;;;;;7.79;59.12;97555.34;6285239;27;96457;-70
2022/12/10 05:56:37;;;;;;;;;33.20;29.40;;;;;7.78;59.00;97537.63;6289494;27;96804;-70
2022/12/10 05:59:40;;;;;;;;;29.50;27.00;;;;;7.80;59.24;97522.13;6287029;27;97542;-69
2022/12/10 06:02:44;;;;;;;;;33.50;30.00;;;;;7.81;59.15;97524.56;6283961;27;96905;-70
2022/12/10 06:05:47;;;;;;;;;32.00;28.60;;;;;7.86;58.99;97512.31;6287747;27;96374;-70
2022/12/10 06:08:53;;;;;;;;;30.60;28.00;;;;;7.87;59.01;97519.31;6284192;27;96435;-69
2022/12/10 06:11:57;;;;;;;;;28.60;27.00;;;;;7.93;58.93;97521.03;6300882;27;96511;-69
2022/12/10 06:15:00;;;;;;;;;29.00;26.40;;;;;7.94;59.03;97519.97;6283817;27;96912;-68
2022/12/10 06:18:04;;;;;;;;;29.00;26.20;;;;;7.96;58.71;97515.19;6282941;27;96337;-69
2022/12/10 06:21:09;;;;;;;;;25.00;25.00;;;;;7.98;59.00;97518.44;6286773;27;97258;-69
2022/12/10 06:24:14;;;;;;;;;29.40;28.00;;;;;7.99;58.87;97515.53;6284814;27;96246;-69
2022/12/10 06:27:17;;;;;;;;;24.75;22.25;;;;;7.99;58.85;97531.63;6284192;27;96517;-70
2022/12/10 06:30:21;;;;;;;;;22.80;22.80;;;;;8.03;58.67;97546.19;6287595;27;97781;-69
2022/12/10 06:33:24;;;;;;;;;22.50;21.50;;;;;8.05;58.61;97544.09;6279211;27;96624;-69
2022/12/10 06:36:27;;;;;;;;;25.00;22.40;;;;;8.05;58.56;97537.91;6285605;27;96608;-70
2022/12/10 06:39:32;;;;;;;;;21.40;20.40;;;;;8.03;58.50;97546.19;6285954;27;96258;-70
2022/12/10 06:42:35;;;;;;;;;23.00;22.40;;;;;8.08;58.58;97561.59;6283245;27;97125;-69
2022/12/10 06:45:40;;;;;;;;;25.00;23.00;;;;;8.01;58.45;97563.59;6283688;27;96656;-69
2022/12/10 06:48:43;;;;;;;;;21.20;20.00;;;;;8.12;58.63;97582.34;6279741;27;96701;-70
2022/12/10 06:51:48;;;;;;;;;22.00;22.00;;;;;8.13;58.43;97567.88;6283980;27;96520;-70
2022/12/10 06:54:54;;;;;;;;;22.00;21.80;;;;;8.14;58.34;97576.75;6285211;27;96375;-70
2022/12/10 06:57:58;;;;;;;;;28.33;26.33;;;;;8.07;58.27;97589.47;6282588;27;97465;-70
2022/12/10 07:01:06;;;;;;;;;32.00;26.00;;;;;8.07;58.01;97606.41;6282433;27;96827;-69
2022/12/10 07:04:10;;;;;;;;;29.40;26.00;;;;;8.07;58.58;97622.50;6301043;27;96245;-70
2022/12/10 07:07:13;;;;;;;;;30.20;28.00;;;;;8.00;58.75;97621.81;6285533;27;96322;-70
2022/12/10 07:10:18;;;;;;;;;30.00;29.00;;;;;7.97;58.86;97626.81;6285515;27;96376;-69
2022/12/10 07:13:23;;;;;;;;;32.40;29.40;;;;;7.97;58.86;97613.41;6285879;27;96203;-69
2022/12/10 07:16:33;;;;;;;;;29.00;27.40;;;;;8.00;58.81;97607.59;6287025;27;97012;-70
2022/12/10 07:19:37;;;;;;;;;29.40;26.40;;;;;7.99;58.82;97612.13;6286287;27;96719;-70
2022/12/10 07:22:40;;;;;;;;;34.80;29.80;;;;;7.98;58.81;97607.81;6289150;27;96241;-69
2022/12/10 07:25:46;;;;;;;;;30.00;28.80;;;;;7.94;58.77;97600.47;6288828;27;96336;-70
2022/12/10 07:28:49;;;;;;;;;33.80;30.00;;;;;8.08;58.71;97618.78;6284910;27;96260;-69
2022/12/10 07:31:55;;;;;;;;;34.60;30.00;;;;;8.12;58.67;97622.59;6287206;27;96663;-69
2022/12/10 07:34:59;;;;;;;;;29.00;28.00;;;;;8.14;58.45;97625.88;6288230;27;96411;-70
2022/12/10 07:38:02;;;;;;;;;37.00;32.00;;;;;8.22;58.27;97622.81;6286363;27;99515;-70
2022/12/10 07:41:10;;;;;;;;;33.40;30.00;;;;;8.27;58.17;97624.78;6287247;27;98111;-70
2022/12/10 07:44:14;;;;;;;;;35.60;30.00;;;;;8.30;58.08;97631.59;6294596;27;96209;-70
2022/12/10 07:47:17;;;;;;;;;41.75;33.00;;;;;8.36;57.77;97626.06;6285160;27;96859;-70
2022/12/10 07:50:21;;;;;;;;;38.40;33.00;;;;;8.37;57.79;97614.28;6286404;27;96269;-69
2022/12/10 07:53:24;;;;;;;;;34.40;30.60;;;;;8.41;57.55;97610.06;6285822;27;96210;-70
2022/12/10 07:56:29;;;;;;;;;33.50;31.50;;;;;8.42;57.53;97592.09;6285921;27;96389;-68
2022/12/10 07:59:32;;;;;;;;;36.00;30.60;;;;;8.45;57.33;97603.19;6303653;27;96260;-69
2022/12/10 08:02:36;;;;;;;;;36.00;30.00;;;;;8.45;57.17;97608.56;6286776;27;96528;-70
2022/12/10 08:05:39;;;;;;;;;33.60;31.00;;;;;8.46;57.26;97612.84;6287190;27;96253;-69
2022/12/10 08:08:44;;;;;;;;;33.20;30.00;;;;;8.46;56.99;97618.22;6292661;27;96189;-68
2022/12/10 08:11:49;;;;;;;;;36.50;33.00;;;;;8.47;57.01;97616.34;6286304;27;96189;-69
2022/12/10 08:14:52;;;;;;;;;33.00;30.00;;;;;8.46;57.07;97620.91;6284728;27;96155;-69
2022/12/10 08:17:56;;;;;;;;;31.00;28.00;;;;;8.49;56.90;97631.19;6282502;27;96676;-69
2022/12/10 08:21:04;;;;;;;;;26.80;25.00;;;;;8.52;56.92;97629.88;6286496;27;96674;-69
2022/12/10 08:24:08;;;;;;;;;25.00;24.00;;;;;8.59;56.67;97635.94;6283273;27;96331;-69
2022/12/10 08:27:13;;;;;;;;;26.00;23.00;;;;;8.59;56.56;97636.75;6300204;27;96259;-69
2022/12/10 08:30:17;;;;;;;;;25.00;23.20;;;;;8.64;56.32;97644.09;6283947;27;97070;-69
2022/12/10 08:33:20;;;;;;;;;27.50;26.00;;;;;8.61;56.43;97645.38;6298352;27;96199;-69
2022/12/10 08:36:23;;;;;;;;;27.00;25.00;;;;;8.60;56.45;97637.59;6271004;27;96456;-68
2022/12/10 08:39:27;;;;;;;;;25.00;24.40;;;;;8.66;56.23;97655.41;6304495;27;97052;-70
2022/12/10 08:42:32;;;;;;;;;30.33;27.33;;;;;8.65;56.25;97665.34;6284671;27;97193;-69
2022/12/10 08:45:35;;;;;;;;;27.00;25.00;;;;;8.68;56.52;97645.25;6284565;27;97855;-70
2022/12/10 08:48:40;;;;;;;;;26.20;24.20;;;;;8.62;56.43;97649.72;6277607;27;96440;-70
2022/12/10 08:51:43;;;;;;;;;28.00;27.00;;;;;8.62;56.35;97640.84;6280072;27;96907;-70
2022/12/10 08:54:46;;;;;;;;;24.40;23.40;;;;;8.65;56.18;97638.47;6275336;27;96510;-69
2022/12/10 08:57:51;;;;;;;;;28.50;27.00;;;;;8.67;56.51;97633.69;6281414;27;97741;-70
2022/12/10 09:00:55;;;;;;;;;35.00;32.00;;;;;8.67;56.11;97635.56;6270054;27;96408;-70
2022/12/10 09:03:59;;;;;;;;;37.67;33.00;;;;;8.56;56.38;97631.84;6283357;27;96382;-70
2022/12/10 09:07:04;;;;;;;;;36.80;32.40;;;;;8.41;56.71;97644.16;6283864;27;97135;-70
2022/12/10 09:10:12;;;;;;;;;35.20;31.00;;;;;8.40;56.96;97650.59;6279608;27;96879;-70
2022/12/10 09:13:17;;;;;;;;;35.50;30.50;;;;;8.35;57.02;97651.31;6280830;27;96192;-70
2022/12/10 09:16:20;;;;;;;;;34.60;30.80;;;;;8.31;57.08;97644.78;6284465;27;96311;-70
2022/12/10 09:19:24;;;;;;;;;34.00;30.00;;;;;8.35;57.17;97645.94;6270738;27;96602;-70
2022/12/10 09:22:28;;;;;;;;;35.80;32.00;;;;;8.36;57.38;97641.38;6291570;27;96460;-70
2022/12/10 09:25:32;;;;;;;;;32.00;30.00;;;;;8.40;57.25;97629.94;6289872;27;96328;-70
2022/12/10 09:28:37;;;;;;;;;40.80;33.80;;;;;8.42;57.35;97618.94;6284510;27;96261;-69
2022/12/10 09:31:41;;;;;;;;;33.20;29.20;;;;;8.57;57.05;97628.13;6288062;27;96313;-69
2022/12/10 09:34:44;;;;;;;;;30.67;29.00;;;;;8.61;56.76;97621.22;6286455;27;96359;-69
2022/12/10 09:37:47;;;;;;;;;31.50;28.00;;;;;8.68;56.62;97629.13;6286585;27;96275;-69
2022/12/10 09:41:00;;;;;;;;;34.40;30.80;;;;;8.76;56.52;97625.22;6281096;27;96659;-68
2022/12/10 09:44:14;;;;;;;;;30.80;28.80;;;;;8.80;56.55;97627.19;6266079;27;97071;-68
2022/12/10 09:47:17;;;;;;;;;36.60;32.60;;;;;8.85;56.27;97623.78;6289794;27;96451;-69
2022/12/10 09:50:27;;;;;;;;;28.80;26.20;;;;;8.85;56.06;97632.66;6288185;27;96937;-68
2022/12/10 09:53:31;;;;;;;;;37.00;31.75;;;;;8.81;56.14;97636.88;6288218;27;96922;-69
2022/12/10 09:56:36;;;;;;;;;39.40;34.20;;;;;8.87;55.95;97622.50;6288900;27;96412;-68
2022/12/10 09:59:44;;;;;;;;;37.00;30.80;;;;;8.83;55.95;97618.66;6286558;27;96449;-70
2022/12/10 10:02:50;;;;;;;;;41.80;35.00;;;;;8.83;55.86;97618.66;6288313;27;96552;-70
2022/12/10 10:05:56;;;;;;;;;35.20;31.00;;;;;8.83;55.90;97617.84;6287450;27;96427;-69
2022/12/10 10:09:02;;;;;;;;;38.20;33.00;;;;;8.85;55.97;97619.22;6285658;27;96208;-69
2022/12/10 10:12:13;;;;;;;;;30.00;29.00;;;;;8.87;55.90;97625.19;6284233;27;96481;-69
2022/12/10 10:15:25;;;;;;;;;24.00;23.00;;;;;8.92;55.65;97619.91;6285910;27;96098;-69
2022/12/10 10:18:36;;;;;;;;;24.80;23.80;;;;;8.96;55.65;97622.91;6279987;27;96365;-69
2022/12/10 10:21:42;;;;;;;;;33.00;28.60;;;;;9.03;55.50;97615.53;6280058;27;96198;-68
2022/12/10 10:24:47;;;;;;;;;26.25;24.75;;;;;9.04;55.34;97606.41;6276028;27;96578;-68
2022/12/10 10:27:50;;;;;;;;;23.80;21.20;;;;;9.07;54.98;97613.97;6277788;27;96580;-68
2022/12/10 10:30:55;;;;;;;;;23.00;22.50;;;;;9.07;54.84;97614.78;6270522;27;96758;-68
2022/12/10 10:34:02;;;;;;;;;24.00;22.00;;;;;9.08;55.10;97618.31;6278285;27;96495;-69
2022/12/10 10:37:06;;;;;;;;;27.67;24.33;;;;;9.11;55.02;97612.44;6277765;27;96560;-69
2022/12/10 10:40:23;;;;;;;;;24.60;22.60;;;;;9.12;54.90;97606.00;6286963;27;96576;-69
2022/12/10 10:43:32;;;;;;;;;23.25;20.50;;;;;9.19;54.95;97603.16;6282534;27;97450;-69
2022/12/10 10:46:40;;;;;;;;;27.00;25.00;;;;;9.15;54.53;97605.50;6278029;27;97078;-70
2022/12/10 10:49:45;;;;;;;;;23.00;21.50;;;;;9.16;54.40;97603.63;6288666;27;96526;-69
2022/12/10 10:52:48;;;;;;;;;30.40;25.40;;;;;9.12;54.15;97604.13;6278288;27;96532;-69
2022/12/10 10:55:53;;;;;;;;;27.00;24.00;;;;;9.04;54.57;97603.72;6288299;27;96471;-68
2022/12/10 10:59:01;;;;;;;;;22.40;21.00;;;;;9.00;54.46;97606.06;6288126;27;96297;-69
2022/12/10 11:02:20;;;;;;;;;25.00;23.25;;;;;8.88;54.81;97599.13;6287567;27;96266;-69
2022/12/10 11:05:26;;;;;;;;;22.60;21.60;;;;;9.02;54.79;97627.31;6285246;27;96360;-69
2022/12/10 11:08:39;;;;;;;;;25.80;24.40;;;;;9.01;54.64;97621.13;6286300;27;97108;-68
2022/12/10 11:11:42;;;;;;;;;20.40;18.40;;;;;9.00;54.79;97616.81;6286855;27;96330;-69
2022/12/10 11:14:46;;;;;;;;;21.20;19.00;;;;;8.90;54.53;97605.06;6284693;27;96360;-68
2022/12/10 11:17:54;;;;;;;;;23.33;20.33;;;;;9.03;54.80;97624.41;6288170;27;96321;-69
2022/12/10 11:21:00;;;;;;;;;37.40;32.00;;;;;9.05;54.72;97630.34;6287996;27;96507;-69
2022/12/10 11:24:11;;;;;;;;;38.50;33.00;;;;;9.05;54.58;97629.53;6286151;27;96240;-69
2022/12/10 11:27:25;;;;;;;;;28.00;28.00;;;;;9.02;54.77;97614.72;6285446;27;96793;-69
2022/12/10 11:30:33;;;;;;;;;37.00;32.50;;;;;8.99;54.88;97623.25;6280380;27;96298;-69
2022/12/10 11:33:50;;;;;;;;;33.75;31.00;;;;;8.91;54.93;97620.13;6285154;27;96647;-69
2022/12/10 11:37:04;;;;;;;;;31.20;30.00;;;;;8.88;55.20;97620.63;6288214;27;96240;-69
2022/12/10 11:40:25;;;;;;;;;33.20;29.20;;;;;8.89;55.10;97625.78;6288253;27;96275;-69
2022/12/10 11:43:44;;;;;;;;;36.60;32.00;;;;;8.87;55.03;97611.75;6282421;27;96554;-68
2022/12/10 11:47:15;;;;;;;;;18.25;16.00;;;;;8.85;54.74;97613.84;6289482;27;96261;-69
2022/12/10 11:50:28;;;;;;;;;35.00;32.00;;;;;8.82;55.09;97627.78;6283294;27;97039;-69
2022/12/10 11:53:46;;;;;;;;;40.25;35.00;;;;;8.82;55.53;97618.91;6286576;27;97454;-69
2022/12/10 11:56:57;;;;;;;;;32.40;30.40;;;;;8.80;55.51;97610.25;6289190;27;96523;-69
2022/12/10 12:00:05;;;;;;;;;38.20;33.60;;;;;8.81;55.67;97620.78;6286815;27;96436;-69
2022/12/10 12:03:30;;;;;;;;;26.40;24.80;;;;;8.75;55.23;97610.97;6266561;27;97213;-68
2022/12/10 12:07:09;;;;;;;;;21.00;19.00;;;;;8.73;55.42;97617.66;6285182;27;96783;-70
2022/12/10 12:10:43;;;;;;;;;24.60;22.40;;;;;8.73;55.47;97609.59;6272877;27;96169;-68
2022/12/10 12:14:02;;;;;;;;;28.00;27.00;;;;;8.69;55.72;97615.47;6283303;27;96329;-69
2022/12/10 12:17:11;;;;;;;;;26.00;23.20;;;;;8.57;55.76;97611.19;6283541;27;96309;-68
2022/12/10 12:20:21;;;;;;;;;33.50;30.00;;;;;8.43;56.20;97601.78;6286522;27;96271;-68
2022/12/10 12:23:34;;;;;;;;;34.00;30.60;;;;;8.41;56.51;97610.06;6274930;27;96714;-69
2022/12/10 12:26:40;;;;;;;;;37.80;33.00;;;;;8.43;56.42;97599.91;6286669;27;96311;-69
2022/12/10 12:29:51;;;;;;;;;33.00;30.20;;;;;8.44;56.39;97596.19;6285558;27;96808;-68
2022/12/10 12:33:02;;;;;;;;;26.50;25.50;;;;;8.51;56.13;97604.06;6285140;27;96163;-69
2022/12/10 12:36:12;;;;;;;;;34.00;30.00;;;;;8.51;56.01;97601.38;6287087;27;96890;-69
2022/12/10 12:39:25;;;;;;;;;29.60;28.60;;;;;8.58;56.10;97591.34;6284356;27;96335;-69
2022/12/10 12:42:34;;;;;;;;;35.00;32.00;;;;;8.58;55.92;97586.78;6286668;27;96429;-69
2022/12/10 12:45:41;;;;;;;;;33.75;29.75;;;;;8.53;56.07;97584.00;6286474;27;96306;-68
2022/12/10 12:48:54;;;;;;;;;37.40;32.60;;;;;8.57;55.53;97582.44;6282802;27;97231;-68
2022/12/10 12:52:03;;;;;;;;;26.80;25.20;;;;;8.61;55.45;97598.91;6288250;27;96629;-68
2022/12/10 12:55:19;;;;;;;;;41.75;36.00;;;;;8.58;55.37;97594.84;6302564;27;97063;-68
2022/12/10 12:58:32;;;;;;;;;34.20;31.20;;;;;8.57;55.71;97603.94;6284297;27;96543;-68
2022/12/10 13:01:41;;;;;;;;;38.40;33.40;;;;;8.54;56.03;97595.56;6278864;27;96099;-69
2022/12/10 13:04:45;;;;;;;;;35.40;31.00;;;;;8.56;56.03;97604.16;6288150;27;96257;-69
2022/12/10 13:08:22;;;;;;;;;29.60;26.20;;;;;8.54;55.68;97609.81;6290373;27;97220;-69
2022/12/10 13:11:33;;;;;;;;;32.33;29.67;;;;;8.57;55.81;97598.56;6274725;27;96573;-68
2022/12/10 13:15:01;;;;;;;;;31.00;27.00;;;;;8.59;55.90;97603.72;6288449;27;96652;-69
2022/12/10 13:18:20;;;;;;;;;28.75;27.25;;;;;8.53;55.81;97616.22;6290859;27;96448;-68
2022/12/10 13:21:30;;;;;;;;;34.40;29.40;;;;;8.53;56.52;97620.78;6287485;27;96310;-69
2022/12/10 13:25:02;;;;;;;;;27.80;25.60;;;;;8.54;55.86;97628.59;6289341;27;96234;-68
2022/12/10 13:28:26;;;;;;;;;31.00;28.00;;;;;8.53;55.93;97639.59;6272224;27;96633;-68
2022/12/10 13:31:38;;;;;;;;;27.00;21.50;;;;;8.42;56.15;97640.44;6288820;27;96307;-68
2022/12/10 13:34:42;;;;;;;;;29.75;26.75;;;;;8.30;56.32;97639.66;6289178;27;96279;-68
2022/12/10 13:37:56;;;;;;;;;31.00;29.40;;;;;8.31;56.57;97650.13;6286688;27;96315;-68
2022/12/10 13:44:38;;;;;;;;;34.40;30.00;;;;;8.32;56.69;97646.41;6291010;27;96928;-68
2022/12/10 13:47:46;;;;;;;;;37.75;31.25;;;;;8.34;56.61;97649.69;6282453;27;96289;-69
2022/12/10 13:50:56;;;;;;;;;31.40;29.20;;;;;8.31;56.96;97643.97;6290591;27;96891;-69
2022/12/10 13:54:32;;;;;;;;;37.20;30.00;;;;;8.29;56.84;97638.81;6290650;27;96345;-68
2022/12/10 13:57:55;;;;;;;;;34.80;30.00;;;;;8.31;56.83;97641.28;6269550;27;99716;-69
2022/12/10 14:01:07;;;;;;;;;36.50;30.75;;;;;8.30;56.54;97650.41;6286732;27;96217;-68
2022/12/10 14:04:51;;;;;;;;;34.40;30.20;;;;;8.23;56.57;97637.06;6303923;27;96613;-68
2022/12/10 14:07:59;;;;;;;;;33.00;25.60;;;;;8.27;56.84;97646.28;6281899;27;96418;-69
2022/12/10 14:11:05;;;;;;;;;36.00;31.00;;;;;8.26;56.83;97652.69;6287130;27;96420;-68
2022/12/10 14:14:14;;;;;;;;;35.80;30.00;;;;;8.26;56.74;97668.78;6288932;27;96296;-68
2022/12/10 14:17:24;;;;;;;;;40.00;29.50;;;;;8.10;56.94;97642.69;6289218;27;96182;-68
2022/12/10 14:20:30;;;;;;;;;31.25;28.50;;;;;8.23;56.81;97655.84;6286720;27;96852;-67
2022/12/10 14:23:36;;;;;;;;;37.40;29.60;;;;;8.32;56.77;97661.69;6285098;27;96786;-68
2022/12/10 14:26:47;;;;;;;;;37.60;31.40;;;;;8.32;56.82;97657.16;6286825;27;96252;-68
2022/12/10 14:29:54;;;;;;;;;32.00;29.00;;;;;8.27;57.26;97657.81;6288471;27;96725;-68
2022/12/10 14:33:00;;;;;;;;;35.75;30.00;;;;;8.23;57.54;97655.84;6282932;27;96882;-70
2022/12/10 14:36:04;;;;;;;;;35.60;30.00;;;;;8.16;57.36;97657.88;6289434;27;96257;-69
2022/12/10 14:39:15;;;;;;;;;36.00;29.75;;;;;8.19;57.49;97660.88;6289005;27;96319;-69
2022/12/10 14:42:19;;;;;;;;;37.80;31.80;;;;;8.14;57.52;97650.03;6284639;27;96383;-69
2022/12/10 14:45:23;;;;;;;;;34.50;30.00;;;;;8.17;57.52;97654.09;6287409;27;96957;-68
2022/12/10 14:48:28;;;;;;;;;33.25;29.25;;;;;8.18;57.29;97651.19;6279092;27;98714;-68